0E0

Moriarty Airport

Moriarty, New Mexico, USA
METAR K0E0 172315Z AUTO 17005KT 10SM CLR 13/M06 A3007 RMK AO2 T01301063
Observed Flight Rules
Nov-17 @ 23:15 UTC (21 minutes ago) Visual Flight Rules
Wind Visibility Clouds
170° at 5 knots 10 miles
  • Clear skies
Temperatures Readings
Current 13°C / 55°F
Dewpoint -6°C / 21°F
Humidity 26%
Altimeter 30.07" Hg
Pressure 1018 hPa
Elevation 1890
METAR K0E0 172315Z AUTO 17005KT 10SM CLR 13/M06 A3007 RMK AO2 T01301063
Observed Flight Rules
Nov-17 @ 23:15 UTC
(21 minutes ago)
VFR
Wind Visibility
170° at 5 knots 10 miles
Clouds
  • Clear skies
Temperature Dewpoint
13°C / 55°F -6°C / 21°F
Humidity Altimeter Pressure
26% 30.07" Hg 1018 hPa